KLYH

Lynchburg Regional / Preston Glenn Field Airport

Lynchburg, Virginia, USA
METAR KLYH 231054Z AUTO 20008KT 10SM FEW023 SCT031 SCT095 13/13 A2971 RMK AO2 SLP056 T01330133
Observed Flight Rules
Jan-23 @ 10:54 UTC (an hour ago) Visual Flight Rules
Wind Visibility Clouds
200° at 8 knots 10 miles
  • Few at 2,300' AGL
  • Scattered at 3,100' AGL
  • Scattered at 9,500' AGL
Temperatures Readings
Current 13°C / 55°F
Dewpoint 13°C / 55°F
Humidity 100%
Altimeter 29.71" Hg
Pressure 1005.6 hPa
Elevation 295
METAR KLYH 231054Z AUTO 20008KT 10SM FEW023 SCT031 SCT095 13/13 A2971 RMK AO2 SLP056 T01330133
Observed Flight Rules
Jan-23 @ 10:54 UTC
(an hour ago)
VFR
Wind Visibility
200° at 8 knots 10 miles
Clouds
  • Few at 2,300' AGL
  • Scattered at 3,100' AGL
  • Scattered at 9,500' AGL
Temperature Dewpoint
13°C / 55°F 13°C / 55°F
Humidity Altimeter Pressure
100% 29.71" Hg 1005.6 hPa